Time;durP1;ratioP1;P1;durP2;ratioP2;P2;SDS_P1;SDS_P2;PMS_P1;PMS_P2;Temp;Humidity;BMP_temperature;BMP_pressure;BME280_temperature;BME280_humidity;BME280_pressure;Samples;Min_cycle;Max_cycle;Signal;HPM_P1;HPM_P2
2021/12/10 00:00:51;;;;;;;219.60;114.03;;;;;;;4.82;68.74;94080.69;4858922;29;20048;-76
2021/12/10 00:03:44;;;;;;;196.57;96.35;;;;;;;4.85;69.01;94087.19;4875345;29;20037;-76
2021/12/10 00:06:11;;;;;;;213.27;111.50;;;;;;;4.86;67.65;94089.56;4875576;29;20040;-76
2021/12/10 00:08:38;;;;;;;225.27;110.15;;;;;;;4.98;67.50;94084.50;4874513;29;20060;-76
2021/12/10 00:11:10;;;;;;;212.85;103.18;;;;;;;4.96;67.91;94089.88;4874157;29;20101;-77
2021/12/10 00:13:36;;;;;;;194.98;95.07;;;;;;;4.91;67.65;94076.06;4889275;29;20033;-76
2021/12/10 00:16:03;;;;;;;149.20;71.72;;;;;;;4.89;67.50;94070.34;4875119;29;20047;-76
2021/12/10 00:18:34;;;;;;;126.03;62.88;;;;;;;4.94;67.64;94067.91;4889286;29;20033;-76
2021/12/10 00:21:02;;;;;;;175.32;87.57;;;;;;;4.91;68.00;94076.06;4872214;29;20060;-76
2021/12/10 00:23:30;;;;;;;185.05;91.32;;;;;;;4.96;68.28;94073.63;4874699;29;20057;-77
2021/12/10 00:25:55;;;;;;;159.82;80.10;;;;;;;5.05;67.56;94072.34;4874545;29;20035;-76
2021/12/10 00:28:23;;;;;;;155.27;77.90;;;;;;;5.00;67.83;94067.81;4871301;29;20033;-77
2021/12/10 00:31:16;;;;;;;128.02;66.53;;;;;;;5.09;68.04;94050.28;4878053;29;20454;-77
2021/12/10 00:33:49;;;;;;;113.70;60.70;;;;;;;5.09;67.62;94056.22;4886846;23;20036;-77
2021/12/10 00:36:15;;;;;;;106.38;56.60;;;;;;;5.07;68.02;94073.69;4878368;29;20049;-77
2021/12/10 00:38:40;;;;;;;121.57;65.18;;;;;;;5.10;68.25;94067.31;4878127;29;20052;-76
2021/12/10 00:41:07;;;;;;;124.75;61.75;;;;;;;5.10;67.85;94067.31;4861399;29;20025;-76
2021/12/10 00:43:34;;;;;;;121.30;67.40;;;;;;;5.14;67.83;94053.00;4878257;29;20124;-76
2021/12/10 00:45:59;;;;;;;156.25;83.40;;;;;;;5.10;67.63;94049.28;4878181;29;20037;-77
2021/12/10 00:48:24;;;;;;;171.57;86.80;;;;;;;5.09;68.03;94069.09;4877845;29;20033;-77
2021/12/10 00:50:51;;;;;;;166.60;90.07;;;;;;;5.15;68.38;94057.16;4878064;29;20120;-77
2021/12/10 00:53:17;;;;;;;146.23;75.50;;;;;;;5.19;68.32;94049.75;4845497;29;20036;-77
2021/12/10 00:55:42;;;;;;;171.82;89.90;;;;;;;5.16;67.51;94048.41;4861242;29;20033;-77
2021/12/10 00:58:08;;;;;;;174.75;90.07;;;;;;;5.18;67.75;94048.19;4861140;29;20037;-77
2021/12/10 01:00:39;;;;;;;154.45;83.18;;;;;;;5.11;68.61;94054.22;4846010;29;20060;-77
2021/12/10 01:03:08;;;;;;;167.77;88.05;;;;;;;5.13;69.04;94036.75;4861117;29;20501;-77
2021/12/10 01:05:34;;;;;;;141.13;77.53;;;;;;;5.24;68.76;94042.97;4859234;29;20552;-76
2021/12/10 01:07:59;;;;;;;170.65;91.40;;;;;;;5.20;68.49;94052.13;4877924;29;20132;-77
2021/12/10 01:10:31;;;;;;;184.77;97.32;;;;;;;5.25;68.15;94048.91;4877766;29;20522;-77
2021/12/10 01:12:57;;;;;;;165.65;89.75;;;;;;;5.23;68.00;94051.72;4861093;29;20192;-76
2021/12/10 01:15:50;;;;;;;210.73;105.70;;;;;;;5.21;67.99;94045.19;4879700;23;20545;-77
2021/12/10 01:23:56;;;;;;;171.07;86.30;;;;;;;5.20;69.05;94052.13;4883522;29;20089;-76
2021/12/10 01:26:56;;;;;;;142.45;70.30;;;;;;;5.24;69.23;94048.13;4876882;29;20037;-77
2021/12/10 01:29:42;;;;;;;132.38;71.38;;;;;;;5.30;68.73;94043.88;4877554;29;20470;-78
2021/12/10 01:32:10;;;;;;;133.68;68.47;;;;;;;5.32;68.74;94032.34;4878419;29;20040;-76
2021/12/10 01:34:36;;;;;;;124.97;65.55;;;;;;;5.39;69.13;94022.75;4877627;29;20101;-77
2021/12/10 01:37:02;;;;;;;139.85;74.65;;;;;;;5.33;68.44;94015.88;4860509;29;20493;-76
2021/12/10 01:39:29;;;;;;;117.30;66.45;;;;;;;5.42;68.18;94013.78;4844815;29;20040;-77
2021/12/10 01:44:50;;;;;;;121.18;61.92;;;;;;;5.37;68.80;94001.56;4873912;29;20482;-77
2021/12/10 01:47:17;;;;;;;118.38;63.85;;;;;;;5.37;68.82;94004.13;4845272;29;20052;-77
2021/12/10 01:49:43;;;;;;;93.72;48.63;;;;;;;5.38;68.94;94010.09;4877599;29;20047;-77
2021/12/10 01:52:10;;;;;;;115.57;57.17;;;;;;;5.37;69.06;94016.25;4860482;29;20032;-77
2021/12/10 01:54:39;;;;;;;109.75;57.13;;;;;;;5.40;69.30;94010.66;4858040;29;20040;-77
2021/12/10 01:57:05;;;;;;;111.97;59.55;;;;;;;5.39;69.15;94009.06;4876738;29;20127;-77
2021/12/10 02:02:02;;;;;;;108.20;56.25;;;;;;;5.48;69.64;93999.22;4921884;23;20135;-77
2021/12/10 02:04:30;;;;;;;73.03;40.33;;;;;;;5.48;68.94;93994.84;4894661;29;20074;-77
2021/12/10 02:06:56;;;;;;;50.42;29.98;;;;;;;5.54;69.38;94001.72;4895264;29;20468;-77
2021/12/10 02:09:22;;;;;;;64.25;34.15;;;;;;;5.52;68.78;93998.56;4878824;29;20081;-77
2021/12/10 02:11:47;;;;;;;57.67;34.83;;;;;;;5.48;68.10;94004.38;4863126;29;20033;-77
2021/12/10 02:14:13;;;;;;;74.28;42.50;;;;;;;5.49;68.14;94005.94;4895960;29;20032;-77
2021/12/10 02:16:38;;;;;;;103.32;54.85;;;;;;;5.50;68.34;93989.47;4888346;29;20050;-79
2021/12/10 02:19:05;;;;;;;98.13;53.67;;;;;;;5.50;68.46;93979.16;4920746;29;20009;-78
2021/12/10 02:21:33;;;;;;;81.50;49.63;;;;;;;5.37;68.49;93973.19;4888743;29;20040;-80
2021/12/10 02:23:59;;;;;;;91.28;50.90;;;;;;;5.32;68.92;93962.75;4879660;29;20040;-80
2021/12/10 02:26:31;;;;;;;97.70;52.97;;;;;;;5.37;68.75;93962.88;4872866;29;20501;-80
2021/12/10 02:28:56;;;;;;;100.15;57.50;;;;;;;5.29;69.31;93955.47;4871702;29;20092;-80
2021/12/10 02:31:22;;;;;;;97.13;55.95;;;;;;;5.27;70.48;93949.75;4886705;29;20125;-80
2021/12/10 02:33:48;;;;;;;89.03;50.15;;;;;;;5.30;70.90;93954.44;4855868;29;20021;-79
2021/12/10 02:36:13;;;;;;;85.50;49.70;;;;;;;5.35;69.72;93967.44;4885049;29;20044;-80
2021/12/10 02:38:46;;;;;;;83.55;45.45;;;;;;;5.36;69.69;93961.28;4878354;29;20076;-80
2021/12/10 02:41:12;;;;;;;89.53;46.53;;;;;;;5.36;69.11;93963.88;4902503;29;20089;-80
2021/12/10 02:43:37;;;;;;;85.72;46.58;;;;;;;5.33;69.70;93971.25;4902169;29;20074;-80
2021/12/10 02:46:03;;;;;;;95.07;53.78;;;;;;;5.33;69.91;93986.72;4854921;29;20036;-79
2021/12/10 02:48:28;;;;;;;124.10;69.70;;;;;;;5.38;69.78;94003.13;4896627;29;20037;-80
2021/12/10 02:50:54;;;;;;;117.38;64.47;;;;;;;5.36;70.39;94005.13;4911771;29;20037;-80
2021/12/10 02:53:26;;;;;;;119.90;65.47;;;;;;;5.31;70.72;93997.25;4848650;29;20374;-80
2021/12/10 02:55:52;;;;;;;119.32;63.88;;;;;;;5.30;71.04;93990.53;4887821;29;20042;-80
2021/12/10 02:58:17;;;;;;;125.57;65.13;;;;;;;5.40;70.44;94003.69;4882889;24;20036;-80
2021/12/10 03:01:07;;;;;;;103.88;52.63;;;;;;;5.34;71.09;93991.66;4912245;29;20037;-80
2021/12/10 03:03:34;;;;;;;105.35;55.53;;;;;;;5.42;70.90;93993.16;4897870;29;20067;-80
2021/12/10 03:06:00;;;;;;;85.22;50.38;;;;;;;5.46;70.80;93996.06;4893728;29;20032;-79
2021/12/10 03:08:25;;;;;;;129.88;70.65;;;;;;;5.44;69.88;93991.16;4896626;29;20075;-79
2021/12/10 03:10:51;;;;;;;130.68;77.03;;;;;;;5.48;70.50;93981.16;4892975;29;20032;-80
2021/12/10 03:13:16;;;;;;;133.18;78.03;;;;;;;5.47;70.83;93985.53;4875956;29;20040;-81
2021/12/10 03:15:42;;;;;;;142.68;81.43;;;;;;;5.48;70.45;93981.97;4907646;29;20037;-81
2021/12/10 03:18:10;;;;;;;156.48;83.47;;;;;;;5.53;69.46;93983.88;4904830;29;20044;-81
2021/12/10 03:20:35;;;;;;;136.98;80.00;;;;;;;5.52;69.82;93977.13;4892693;29;20029;-80
2021/12/10 03:23:01;;;;;;;135.48;80.25;;;;;;;5.41;70.11;93987.22;4903348;29;20095;-80
2021/12/10 03:25:27;;;;;;;116.18;67.93;;;;;;;5.45;72.52;93984.19;4919253;29;20039;-80
2021/12/10 03:27:52;;;;;;;122.40;68.90;;;;;;;5.50;72.13;93984.31;5102790;23;20023;-79
2021/12/10 03:30:23;;;;;;;132.50;74.65;;;;;;;5.48;72.48;93981.16;4940955;29;20044;-79
2021/12/10 03:32:49;;;;;;;135.23;72.35;;;;;;;5.53;72.36;93978.72;4936682;29;20032;-80
2021/12/10 03:35:35;;;;;;;123.43;71.45;;;;;;;5.56;72.28;93983.44;4931360;29;20035;-80
2021/12/10 03:38:03;;;;;;;118.30;70.57;;;;;;;5.60;72.29;93984.56;4934589;23;20045;-80
2021/12/10 03:40:28;;;;;;;130.07;71.07;;;;;;;5.62;72.05;93974.81;4902407;29;20063;-80
2021/12/10 03:42:58;;;;;;;144.80;78.80;;;;;;;5.60;72.19;93980.19;4902142;29;20415;-80
2021/12/10 03:45:28;;;;;;;128.73;73.55;;;;;;;5.67;72.04;93990.41;4884090;29;20063;-80
2021/12/10 03:47:54;;;;;;;124.10;69.30;;;;;;;5.69;71.69;93985.81;4853627;29;20033;-80
2021/12/10 03:50:25;;;;;;;118.03;66.28;;;;;;;5.73;70.72;93995.47;4869297;29;20107;-80
2021/12/10 03:52:51;;;;;;;124.57;67.63;;;;;;;5.75;70.89;93992.69;4855083;29;20036;-80
2021/12/10 03:55:16;;;;;;;119.43;64.03;;;;;;;5.80;70.37;94005.69;4852780;29;20130;-80
2021/12/10 03:57:42;;;;;;;128.88;74.60;;;;;;;5.67;71.92;93995.56;4868651;29;20628;-80
2021/12/10 04:00:08;;;;;;;123.00;69.55;;;;;;;5.67;72.27;93991.19;4853804;29;20044;-79
2021/12/10 04:02:33;;;;;;;123.47;65.72;;;;;;;5.70;71.64;93995.16;4852153;29;20049;-79
2021/12/10 04:04:59;;;;;;;75.57;47.45;;;;;;;5.71;72.87;94001.88;4869283;29;20037;-79
2021/12/10 04:07:25;;;;;;;86.15;46.80;;;;;;;5.75;72.52;93995.25;4854677;29;20057;-79
2021/12/10 04:09:51;;;;;;;75.80;42.67;;;;;;;5.82;72.39;93983.03;4862225;29;20048;-80
2021/12/10 04:12:17;;;;;;;82.80;44.67;;;;;;;5.78;72.06;93976.75;4881516;23;20044;-78
2021/12/10 04:14:43;;;;;;;82.47;49.10;;;;;;;5.83;72.47;93983.81;4910680;29;20024;-78
2021/12/10 04:17:08;;;;;;;111.88;65.43;;;;;;;5.85;71.21;93992.91;4920797;29;20065;-78
2021/12/10 04:19:34;;;;;;;;;;;;;;;5.89;70.67;93996.63;4876048;29;20093;-79
2021/12/10 04:22:00;;;;;;;98.93;59.92;;;;;;;5.93;72.51;93997.00;4906100;29;20002;-79
2021/12/10 04:24:27;;;;;;;116.50;67.68;;;;;;;5.97;71.14;94005.84;4906623;29;20031;-78
2021/12/10 04:26:54;;;;;;;155.88;90.78;;;;;;;5.97;71.12;94004.06;4904400;29;20024;-79
2021/12/10 04:29:20;;;;;;;266.85;170.23;;;;;;;5.94;70.94;94004.50;4895973;29;20088;-77
2021/12/10 04:31:50;;;;;;;266.02;163.57;;;;;;;5.99;70.32;94004.63;4870110;29;20040;-77
2021/12/10 04:34:16;;;;;;;208.45;126.65;;;;;;;6.05;70.92;94007.34;4904807;29;20028;-77
2021/12/10 04:36:41;;;;;;;;;;;;;;;6.07;70.75;94010.47;4891042;29;20037;-79
2021/12/10 04:39:06;;;;;;;;;;;;;;;6.06;70.55;94014.06;4884638;29;19919;-75
2021/12/10 04:41:32;;;;;;;;;;;;;;;6.01;70.53;94018.09;4897718;29;19915;-75
2021/12/10 04:43:57;;;;;;;;;;;;;;;5.99;71.57;94014.16;4880724;29;20438;-76
2021/12/10 04:46:22;;;;;;;;;;;;;;;5.95;71.50;94005.31;4897369;29;19947;-76
2021/12/10 04:49:03;;;;;;;32.47;20.40;;;;;;;5.91;75.19;94006.75;4895976;29;19923;-75
2021/12/10 04:51:30;;;;;;;114.45;67.80;;;;;;;5.92;74.45;94003.94;4880018;29;20462;-75
2021/12/10 04:53:56;;;;;;;148.70;98.18;;;;;;;6.06;72.63;94012.28;4893834;29;20414;-75
2021/12/10 04:56:21;;;;;;;93.70;64.13;;;;;;;6.30;72.00;94005.31;4893873;29;20489;-75
2021/12/10 04:58:47;;;;;;;82.07;54.08;;;;;;;6.53;71.26;94010.50;4878669;29;20409;-75
2021/12/10 05:01:13;;;;;;;109.20;69.88;;;;;;;6.65;69.91;94022.59;4880251;29;20953;-79
2021/12/10 05:03:43;;;;;;;116.45;81.18;;;;;;;6.79;69.41;94008.41;4880321;29;20442;-74
2021/12/10 05:06:09;;;;;;;105.75;71.60;;;;;;;6.98;68.92;94012.41;4894758;29;20490;-75
2021/12/10 05:08:36;;;;;;;80.18;55.78;;;;;;;7.15;68.20;93999.56;4879481;29;21018;-78
2021/12/10 05:11:02;;;;;;;59.85;42.88;;;;;;;7.30;68.11;94012.00;4879197;29;20445;-75
2021/12/10 05:13:27;;;;;;;91.10;61.57;;;;;;;7.21;67.81;94012.38;4883667;29;20485;-76
2021/12/10 05:15:57;;;;;;;74.17;51.07;;;;;;;7.25;68.00;94009.31;4894286;29;20469;-76
2021/12/10 05:18:27;;;;;;;66.68;44.30;;;;;;;7.30;68.01;94012.00;4848810;29;20423;-76
2021/12/10 05:20:53;;;;;;;57.35;40.97;;;;;;;7.18;67.93;94005.06;4865232;29;20493;-76
2021/12/10 05:23:18;;;;;;;53.97;37.97;;;;;;;7.26;68.63;94000.53;4879466;29;20429;-77
2021/12/10 05:25:44;;;;;;;49.10;32.05;;;;;;;7.32;67.99;94000.41;4880105;29;20063;-76
2021/12/10 05:28:09;;;;;;;54.17;33.67;;;;;;;7.19;68.78;94009.22;4879438;29;20428;-76
2021/12/10 05:30:35;;;;;;;52.75;32.58;;;;;;;7.01;69.13;94024.91;4879737;29;20040;-77
2021/12/10 05:33:01;;;;;;;57.40;33.15;;;;;;;6.95;69.30;94012.09;4864281;29;20420;-76
2021/12/10 05:35:28;;;;;;;63.10;36.03;;;;;;;6.92;69.93;94018.50;4897683;29;20117;-77
2021/12/10 05:37:53;;;;;;;58.28;33.85;;;;;;;6.79;69.96;94004.03;4895859;29;20104;-77
2021/12/10 05:40:18;;;;;;;;;;;;;;;6.80;69.97;93999.66;4864713;29;20036;-75
2021/12/10 05:42:44;;;;;;;;;;;;;;;6.75;69.97;93996.97;4896348;29;20328;-76
2021/12/10 05:45:10;;;;;;;;;;;;;;;6.54;70.22;93996.56;4895992;29;19931;-76
2021/12/10 05:47:36;;;;;;;55.20;31.67;;;;;;;6.40;72.18;94000.38;4895505;29;19925;-76
2021/12/10 05:50:01;;;;;;;;;;;;;;;6.30;72.71;93992.41;4864011;29;20032;-76
2021/12/10 05:52:26;;;;;;;;;;;;;;;6.19;72.63;94004.31;4878782;29;20006;-76
2021/12/10 05:54:52;;;;;;;;;;;;;;;6.10;73.37;93997.13;4894721;29;19920;-76
2021/12/10 05:57:17;;;;;;;;;;;;;;;6.10;73.80;93999.72;4895942;29;19916;-75
2021/12/10 05:59:43;;;;;;;;;;;;;;;6.15;73.49;94002.41;4895742;29;19971;-76
2021/12/10 06:02:08;;;;;;;;;;;;;;;6.14;73.12;94005.97;4878844;29;20001;-76
2021/12/10 06:04:34;;;;;;;;;;;;;;;6.18;73.41;93989.03;4878934;29;19965;-75
2021/12/10 06:07:00;;;;;;;;;;;;;;;6.11;73.52;93991.75;4893863;29;19920;-76
2021/12/10 06:09:25;;;;;;;;;;;;;;;5.87;74.64;93975.44;4879162;29;19919;-77
2021/12/10 06:11:51;;;;;;;;;;;;;;;5.80;75.41;94008.28;4879271;29;20348;-76
2021/12/10 06:14:16;;;;;;;;;;;;;;;5.89;74.87;93996.63;4879073;29;19935;-76
2021/12/10 06:16:41;;;;;;;;;;;;;;;5.90;74.65;93987.13;4896050;29;19924;-76
2021/12/10 06:19:06;;;;;;;;;;;;;;;5.92;74.56;93983.31;4895832;29;19926;-77
2021/12/10 06:21:33;;;;;;;;;;;;;;;5.96;75.21;93999.91;4879147;29;20018;-76
2021/12/10 06:23:58;;;;;;;;;;;;;;;6.02;74.32;94013.75;4895762;29;19919;-76
2021/12/10 06:26:24;;;;;;;;;;;;;;;6.03;74.01;94005.00;4878613;29;19923;-76
2021/12/10 06:28:49;;;;;;;;;;;;;;;6.04;74.40;94013.50;4878395;29;19919;-76
2021/12/10 06:31:15;;;;;;;;;;;;;;;6.10;75.15;94013.41;4895870;29;19915;-77
2021/12/10 06:33:40;;;;;;;;;;;;;;;6.04;75.50;93987.72;4879022;29;19926;-76
2021/12/10 06:36:06;;;;;;;;;;;;;;;6.00;75.48;94013.16;4878231;29;19930;-76
2021/12/10 06:38:31;;;;;;;;;;;;;;;6.10;74.29;94004.88;4878662;29;19926;-76
2021/12/10 06:40:56;;;;;;;;;;;;;;;6.06;75.23;93998.59;4878821;29;19927;-76
2021/12/10 06:43:22;;;;;;;;;;;;;;;6.10;76.11;93991.97;4878781;29;19916;-76
2021/12/10 06:45:47;;;;;;;;;;;;;;;6.20;74.81;93974.91;4894768;29;19978;-76
2021/12/10 06:48:13;;;;;;;;;;;;;;;6.24;74.42;93988.16;4892862;29;20404;-76
2021/12/10 06:50:42;;;;;;;;;;;;;;;6.24;74.43;93972.66;4893706;29;19919;-76
2021/12/10 06:53:08;;;;;;;;;;;;;;;6.27;75.41;93992.88;4877578;29;20315;-76
2021/12/10 06:55:33;;;;;;;;;;;;;;;6.43;74.60;93991.41;4895469;29;19919;-78
2021/12/10 06:57:58;;;;;;;;;;;;;;;6.43;73.73;93979.28;4881434;29;19966;-78
2021/12/10 07:00:53;;;;;;;;;;;;;;;6.51;74.09;93998.81;4882319;29;20387;-79
2021/12/10 07:03:20;;;;;;;;;;;;;;;6.67;73.05;93995.53;4867344;29;20307;-79
2021/12/10 07:05:47;;;;;;;107.63;53.72;;;;;;;6.63;72.56;93997.00;4899974;29;19923;-79
2021/12/10 07:08:17;;;;;;;98.88;57.00;;;;;;;6.65;72.46;93991.59;4898611;23;20139;-80
2021/12/10 07:10:43;;;;;;;63.67;40.38;;;;;;;6.61;72.48;93988.69;4938739;29;20058;-79
2021/12/10 07:13:08;;;;;;;50.65;30.52;;;;;;;6.64;73.82;94011.47;4916206;29;20052;-79
2021/12/10 07:15:35;;;;;;;40.35;24.63;;;;;;;6.68;73.35;94002.28;4901314;29;20052;-79
2021/12/10 07:18:01;;;;;;;35.05;22.30;;;;;;;6.71;73.49;93991.47;4887660;29;20042;-80
2021/12/10 07:20:26;;;;;;;41.33;26.50;;;;;;;6.74;73.99;94003.94;4900013;29;20040;-79
2021/12/10 07:22:52;;;;;;;89.15;52.35;;;;;;;6.88;72.76;94012.22;4900370;29;20036;-79
2021/12/10 07:25:18;;;;;;;233.25;146.43;;;;;;;6.92;71.09;93987.50;4900925;29;20036;-80
2021/12/10 07:27:44;;;;;;;306.17;178.25;;;;;;;6.95;71.31;93997.38;4886059;29;20175;-80
2021/12/10 07:30:16;;;;;;;296.33;187.52;;;;;;;6.94;70.94;93990.63;4887631;29;20492;-80
2021/12/10 07:32:41;;;;;;;50.95;29.45;;;;;;;6.98;72.49;93980.63;4919738;29;20043;-80
2021/12/10 07:35:08;;;;;;;167.50;109.00;;;;;;;7.22;71.68;93967.41;4900891;29;20404;-80
2021/12/10 07:37:33;;;;;;;155.93;96.82;;;;;;;7.38;71.14;93989.13;4919219;29;20057;-80
2021/12/10 07:39:59;;;;;;;297.80;192.90;;;;;;;7.42;70.59;93992.03;4918702;29;20036;-80
2021/12/10 07:42:25;;;;;;;365.95;255.30;;;;;;;7.50;69.94;93989.88;4918128;29;20424;-80
2021/12/10 07:44:50;;;;;;;;;;;;;;;7.54;69.55;93985.03;4887380;29;20079;-80
2021/12/10 07:47:15;;;;;;;;;;;;;;;7.56;69.49;94013.25;4906376;29;20002;-79
2021/12/10 07:49:41;;;;;;;;;;;;;;;7.53;68.50;94004.16;4911462;29;19930;-79
2021/12/10 07:52:14;;;;;;;;;;;;;;;7.52;69.36;93987.06;4907839;29;19919;-79
2021/12/10 07:54:40;;;;;;;;;;;;;;;7.43;69.97;93985.84;4914042;29;19919;-79
2021/12/10 07:57:05;;;;;;;;;;;;;;;7.48;70.23;93988.50;4927245;29;19974;-79
2021/12/10 07:59:30;;;;;;;;;;;;;;;7.54;69.57;93979.84;4931662;29;19971;-79
2021/12/10 08:01:56;;;;;;;;;;;;;;;7.52;69.76;93987.84;4920131;29;19918;-78
2021/12/10 08:04:21;;;;;;;;;;;;;;;7.48;69.58;93997.09;4936443;29;19919;-79
2021/12/10 08:06:47;;;;;;;89.82;50.55;;;;;;;7.47;69.93;93979.19;4920110;29;19915;-78
2021/12/10 08:09:13;;;;;;;;;;;;;;;7.41;69.89;93993.84;4922264;29;20027;-78
2021/12/10 08:11:39;;;;;;;;;;;;;;;7.22;69.34;93998.41;4920226;29;19915;-79
2021/12/10 08:14:05;;;;;;;;;;;;;;;6.95;70.65;93992.22;4925208;29;19994;-79
2021/12/10 08:16:30;;;;;;;92.00;55.25;;;;;;;6.84;71.88;94000.78;4927229;29;19978;-79
2021/12/10 08:18:57;;;;;;;101.75;59.25;;;;;;;6.88;71.98;93984.59;4878524;29;20040;-79
2021/12/10 08:21:22;;;;;;;113.93;62.42;;;;;;;6.96;71.62;94001.53;4908203;29;20266;-78
2021/12/10 08:23:50;;;;;;;110.00;65.45;;;;;;;7.03;71.09;93997.03;4912086;29;20032;-78
2021/12/10 08:26:15;;;;;;;126.03;84.35;;;;;;;7.25;70.06;93998.97;4912870;29;20420;-78
2021/12/10 08:28:41;;;;;;;131.30;82.27;;;;;;;7.64;68.71;94000.69;4890525;29;20413;-79
2021/12/10 08:31:06;;;;;;;110.18;69.38;;;;;;;7.83;68.05;93998.72;4888964;29;20288;-79
2021/12/10 08:33:49;;;;;;;119.50;77.95;;;;;;;7.99;67.28;93991.97;4887280;29;20416;-79
2021/12/10 08:36:16;;;;;;;125.20;80.75;;;;;;;8.30;65.94;94008.75;4845285;29;20422;-79
2021/12/10 08:38:41;;;;;;;127.90;79.90;;;;;;;8.60;65.94;94008.41;4838872;29;20445;-79
2021/12/10 08:41:14;;;;;;;151.40;95.77;;;;;;;8.86;65.21;93989.56;4837894;29;20436;-79
2021/12/10 08:43:39;;;;;;;133.10;79.95;;;;;;;9.18;63.68;93978.53;4851508;29;20424;-80
2021/12/10 08:46:05;;;;;;;116.93;78.43;;;;;;;9.39;63.61;93989.91;4845036;29;20421;-80
2021/12/10 08:48:31;;;;;;;119.72;77.65;;;;;;;9.65;62.25;94003.94;4836143;29;20958;-80
2021/12/10 08:50:58;;;;;;;142.13;80.43;;;;;;;9.80;61.09;93991.09;4838746;29;20469;-79
2021/12/10 08:55:56;;;;;;;132.68;83.32;;;;;;;9.77;61.70;93996.78;4883329;29;20631;-80
2021/12/10 08:58:21;;;;;;;189.35;109.43;;;;;;;10.00;61.79;93991.25;4882201;29;20491;-80
2021/12/10 09:00:55;;;;;;;122.68;78.70;;;;;;;10.28;60.50;93992.78;4883305;29;20424;-80
2021/12/10 09:05:56;;;;;;;121.80;80.03;;;;;;;10.47;59.86;93982.78;5673715;23;21014;-80
2021/12/10 09:08:21;;;;;;;119.85;76.95;;;;;;;10.22;59.34;93978.97;4912586;29;20418;-80
2021/12/10 09:10:47;;;;;;;117.63;75.90;;;;;;;10.14;60.25;93997.59;4919606;29;20484;-80
2021/12/10 09:13:14;;;;;;;106.88;66.07;;;;;;;9.97;60.94;93986.56;4897725;29;20244;-80
2021/12/10 09:15:41;;;;;;;;;;;;;;;9.88;61.40;93993.22;4888825;29;20036;-80
2021/12/10 09:18:06;;;;;;;;;;;;;;;9.68;61.86;93978.25;4917668;23;20007;-81
2021/12/10 09:20:43;;;;;;;;;;;;;;;9.53;62.74;93981.50;4913093;29;19929;-80
2021/12/10 09:25:43;;;;;;;;;;;;;;;9.54;61.64;93961.50;5182333;23;19924;-79
2021/12/10 09:28:09;;;;;;;;;;;;;;;9.43;62.84;93978.78;4899368;29;19930;-80
2021/12/10 09:30:34;;;;;;;;;;;;;;;9.42;63.38;93979.81;4903186;29;19926;-80
2021/12/10 09:32:59;;;;;;;;;;;;;;;9.27;63.87;93971.88;4902912;29;19963;-79
2021/12/10 09:35:26;;;;;;;;;;;;;;;9.37;64.09;93982.38;4887119;29;19920;-84
2021/12/10 09:37:51;;;;;;;;;;;;;;;9.47;64.27;93966.91;4886049;29;19967;-82
2021/12/10 09:40:19;;;;;;;;;;;;;;;9.65;63.70;93937.22;4903943;29;19927;-80
2021/12/10 09:42:44;;;;;;;;;;;;;;;9.62;63.16;93917.72;4895951;29;20018;-70
2021/12/10 09:45:10;;;;;;;;;;;;;;;9.53;63.35;93939.19;4896338;29;20025;-70
2021/12/10 09:47:36;;;;;;;;;;;;;;;9.51;64.33;93941.25;4895940;29;19919;-70
2021/12/10 09:50:01;;;;;;;;;;;;;;;9.57;64.23;93940.25;4896022;29;19927;-71
2021/12/10 09:52:26;;;;;;;;;;;;;;;9.58;63.82;93932.22;4896266;29;20413;-71
2021/12/10 09:54:52;;;;;;;;;;;;;;;9.60;63.30;93929.41;4895215;29;19923;-71
2021/12/10 09:57:19;;;;;;;;;;;;;;;9.62;63.30;93933.31;4895676;29;19923;-70
2021/12/10 09:59:44;;;;;;;;;;;;;;;9.75;62.43;93936.50;4895610;29;19920;-70
2021/12/10 10:02:10;;;;;;;;;;;;;;;9.81;62.27;93936.31;4894375;29;19929;-70
2021/12/10 10:04:37;;;;;;;;;;;;;;;9.87;62.40;93918.94;4894925;29;20276;-70
2021/12/10 10:07:05;;;;;;;;;;;;;;;9.98;62.44;93905.00;4895311;29;19923;-70
2021/12/10 10:09:30;;;;;;;160.63;88.00;;;;;;;10.09;60.82;93901.47;4895326;29;19930;-70
2021/12/10 10:12:04;;;;;;;180.67;106.60;;;;;;;10.37;60.60;93891.75;4893975;29;20844;-70
2021/12/10 10:14:30;;;;;;;171.43;107.03;;;;;;;10.53;59.71;93885.59;4893500;29;20421;-70
2021/12/10 10:16:55;;;;;;;186.10;113.90;;;;;;;10.80;59.04;93896.63;4876739;29;20549;-70
2021/12/10 10:19:21;;;;;;;182.98;106.40;;;;;;;11.03;59.24;93905.00;4893999;29;20389;-70
2021/12/10 10:21:49;;;;;;;146.30;87.35;;;;;;;11.09;58.60;93893.59;4895427;29;20115;-69
2021/12/10 10:24:14;;;;;;;120.75;67.18;;;;;;;11.12;59.56;93893.06;4894975;29;20100;-69
2021/12/10 10:26:45;;;;;;;;;;;;;;;11.18;58.80;93886.06;4870926;29;20048;-71
2021/12/10 10:29:12;;;;;;;;;;;;;;;11.15;59.14;93886.56;4878776;29;19930;-70
2021/12/10 10:31:39;;;;;;;;;;;;;;;11.17;59.58;93885.25;4895623;29;19998;-70
2021/12/10 10:34:04;;;;;;;;;;;;;;;11.08;59.55;93879.03;4895640;29;19930;-69
2021/12/10 10:36:30;;;;;;;;;;;;;;;11.07;60.40;93874.84;4895503;29;19919;-69
2021/12/10 10:39:10;;;;;;;;;;;;;;;11.06;60.31;93861.06;4895344;29;19919;-69
2021/12/10 10:41:35;;;;;;;;;;;;;;;10.97;60.84;93854.00;4895074;29;19919;-70
2021/12/10 10:44:02;;;;;;;87.72;51.00;;;;;;;10.86;60.74;93855.03;4894949;29;19923;-70
2021/12/10 10:46:27;;;;;;;103.25;61.38;;;;;;;10.82;60.96;93868.53;4895039;29;20033;-70
2021/12/10 10:48:53;;;;;;;112.13;64.57;;;;;;;10.75;60.29;93862.81;4894692;29;20040;-70
2021/12/10 10:51:34;;;;;;;104.45;62.42;;;;;;;10.71;60.76;93861.75;4894023;29;20633;-71
2021/12/10 10:54:00;;;;;;;;;;;;;;;10.68;61.41;93866.66;4895019;29;20032;-70
2021/12/10 10:56:25;;;;;;;;;;;;;;;10.59;61.65;93868.22;4894790;29;20390;-70
2021/12/10 10:58:54;;;;;;;;;;;;;;;10.62;61.32;93860.69;4895146;29;19998;-70
2021/12/10 11:01:25;;;;;;;;;;;;;;;10.37;61.68;93856.16;4894993;29;19915;-70
2021/12/10 11:04:00;;;;;;;;;;;;;;;10.36;62.96;93856.41;4893937;29;19970;-70
2021/12/10 11:06:29;;;;;;;;;;;;;;;10.46;62.14;93864.25;4894083;29;19936;-70
2021/12/10 11:09:14;;;;;;;72.32;46.15;;;;;;;10.56;61.83;93859.09;4893795;29;20439;-70
2021/12/10 11:11:57;;;;;;;105.55;63.92;;;;;;;10.53;62.29;93849.97;4886031;29;20504;-79
2021/12/10 11:14:32;;;;;;;80.72;47.28;;;;;;;10.60;62.34;93860.16;4868890;29;20127;-79
2021/12/10 11:17:16;;;;;;;75.15;43.45;;;;;;;10.64;61.19;93861.22;4867545;29;20437;-79
2021/12/10 11:19:57;;;;;;;78.53;44.72;;;;;;;10.13;63.07;93849.78;4885986;29;20064;-79
2021/12/10 11:22:23;;;;;;;71.15;43.42;;;;;;;9.95;63.53;93853.59;4883339;29;20037;-79
2021/12/10 11:25:00;;;;;;;73.20;44.72;;;;;;;10.14;63.19;93857.31;4883901;29;20449;-79
2021/12/10 11:27:34;;;;;;;84.22;43.10;;;;;;;10.20;63.36;93858.13;4868110;29;20688;-79
2021/12/10 11:30:03;;;;;;;72.53;45.25;;;;;;;10.43;61.72;93864.78;4898750;29;20412;-80
2021/12/10 11:32:38;;;;;;;54.08;33.72;;;;;;;10.41;61.59;93859.00;4900069;29;20580;-79
2021/12/10 11:35:47;;;;;;;41.90;25.75;;;;;;;10.21;61.97;93842.31;4868160;29;20044;-79
2021/12/10 11:38:22;;;;;;;42.97;26.15;;;;;;;9.94;62.95;93841.63;4880003;29;20128;-79
2021/12/10 11:40:56;;;;;;;45.60;27.52;;;;;;;10.06;62.44;93844.78;4883117;29;20111;-79
2021/12/10 11:43:56;;;;;;;51.90;32.72;;;;;;;10.30;61.91;93834.03;4899160;29;20410;-79
2021/12/10 11:49:30;;;;;;;40.42;23.83;;;;;;;10.71;60.77;93820.13;4887274;29;20052;-79
2021/12/10 11:52:13;;;;;;;35.72;21.95;;;;;;;10.78;60.39;93825.88;4869443;29;20044;-79
2021/12/10 11:54:42;;;;;;;39.35;22.70;;;;;;;10.85;59.94;93840.44;4900641;29;20057;-79
2021/12/10 11:57:19;;;;;;;37.33;23.08;;;;;;;10.78;59.91;93825.09;4882358;29;20044;-80
2021/12/10 11:59:54;;;;;;;34.42;21.48;;;;;;;10.32;61.17;93821.56;4883185;29;20041;-80
2021/12/10 12:02:43;;;;;;;27.83;17.17;;;;;;;10.01;62.27;93821.41;4899473;29;20044;-80
2021/12/10 12:05:30;;;;;;;26.50;17.13;;;;;;;10.15;62.15;93817.31;4881398;29;20064;-80
2021/12/10 12:07:57;;;;;;;25.42;16.13;;;;;;;10.11;62.37;93799.91;4884755;29;20153;-80
2021/12/10 12:10:26;;;;;;;;;;;;;;;9.78;62.92;93806.22;4867845;29;20037;-79